sensor_id;sensor_type;location;lat;lon;timestamp;P1;durP1;ratioP1;P2;durP2;ratioP2
74335;SDS011;62755;-33.398;-70.572;2022-09-03T00:01:58;119.85;;;44.08;;
74335;SDS011;62755;-33.398;-70.572;2022-09-03T00:04:36;112.47;;;46.08;;
74335;SDS011;62755;-33.398;-70.572;2022-09-03T00:07:13;106.70;;;45.28;;
74335;SDS011;62755;-33.398;-70.572;2022-09-03T00:09:48;101.30;;;48.20;;
74335;SDS011;62755;-33.398;-70.572;2022-09-03T00:12:26;110.20;;;49.22;;
74335;SDS011;62755;-33.398;-70.572;2022-09-03T00:15:00;108.32;;;47.53;;
74335;SDS011;62755;-33.398;-70.572;2022-09-03T00:17:33;106.88;;;48.78;;
74335;SDS011;62755;-33.398;-70.572;2022-09-03T00:20:07;109.60;;;48.13;;
74335;SDS011;62755;-33.398;-70.572;2022-09-03T00:22:41;102.85;;;50.70;;
74335;SDS011;62755;-33.398;-70.572;2022-09-03T00:25:15;106.22;;;49.03;;
74335;SDS011;62755;-33.398;-70.572;2022-09-03T00:27:49;95.30;;;49.20;;
74335;SDS011;62755;-33.398;-70.572;2022-09-03T00:30:22;124.93;;;50.85;;
74335;SDS011;62755;-33.398;-70.572;2022-09-03T00:32:54;105.45;;;50.65;;
74335;SDS011;62755;-33.398;-70.572;2022-09-03T00:35:32;114.38;;;49.38;;
74335;SDS011;62755;-33.398;-70.572;2022-09-03T00:38:05;107.30;;;50.88;;
74335;SDS011;62755;-33.398;-70.572;2022-09-03T00:40:40;107.97;;;50.70;;
74335;SDS011;62755;-33.398;-70.572;2022-09-03T00:43:23;116.97;;;52.75;;
74335;SDS011;62755;-33.398;-70.572;2022-09-03T00:46:07;105.07;;;49.58;;
74335;SDS011;62755;-33.398;-70.572;2022-09-03T00:48:50;116.00;;;49.92;;
74335;SDS011;62755;-33.398;-70.572;2022-09-03T00:51:32;101.45;;;48.53;;
74335;SDS011;62755;-33.398;-70.572;2022-09-03T00:54:09;108.72;;;50.50;;
74335;SDS011;62755;-33.398;-70.572;2022-09-03T00:56:45;106.60;;;50.25;;
74335;SDS011;62755;-33.398;-70.572;2022-09-03T00:59:25;95.88;;;48.08;;
74335;SDS011;62755;-33.398;-70.572;2022-09-03T01:02:05;103.10;;;50.25;;
74335;SDS011;62755;-33.398;-70.572;2022-09-03T01:04:46;108.72;;;50.38;;
74335;SDS011;62755;-33.398;-70.572;2022-09-03T01:07:29;93.15;;;47.03;;
74335;SDS011;62755;-33.398;-70.572;2022-09-03T01:10:06;107.15;;;48.55;;
74335;SDS011;62755;-33.398;-70.572;2022-09-03T01:12:45;98.22;;;49.60;;
74335;SDS011;62755;-33.398;-70.572;2022-09-03T01:15:26;104.68;;;48.38;;
74335;SDS011;62755;-33.398;-70.572;2022-09-03T01:18:07;88.82;;;45.92;;
74335;SDS011;62755;-33.398;-70.572;2022-09-03T01:20:49;98.47;;;46.00;;
74335;SDS011;62755;-33.398;-70.572;2022-09-03T01:26:36;93.82;;;44.53;;
74335;SDS011;62755;-33.398;-70.572;2022-09-03T01:29:26;101.20;;;45.83;;
74335;SDS011;62755;-33.398;-70.572;2022-09-03T01:32:03;93.47;;;44.53;;
74335;SDS011;62755;-33.398;-70.572;2022-09-03T01:34:40;97.80;;;46.15;;
74335;SDS011;62755;-33.398;-70.572;2022-09-03T01:37:18;89.07;;;44.03;;
74335;SDS011;62755;-33.398;-70.572;2022-09-03T01:39:58;91.15;;;43.83;;
74335;SDS011;62755;-33.398;-70.572;2022-09-03T01:42:38;89.32;;;43.28;;
74335;SDS011;62755;-33.398;-70.572;2022-09-03T01:45:22;98.93;;;42.40;;
74335;SDS011;62755;-33.398;-70.572;2022-09-03T01:48:06;83.85;;;44.35;;
74335;SDS011;62755;-33.398;-70.572;2022-09-03T01:50:44;82.50;;;43.28;;
74335;SDS011;62755;-33.398;-70.572;2022-09-03T01:53:26;87.82;;;41.95;;
74335;SDS011;62755;-33.398;-70.572;2022-09-03T01:56:16;87.03;;;39.42;;
74335;SDS011;62755;-33.398;-70.572;2022-09-03T01:58:59;74.28;;;38.45;;
74335;SDS011;62755;-33.398;-70.572;2022-09-03T02:01:40;73.20;;;36.90;;
74335;SDS011;62755;-33.398;-70.572;2022-09-03T02:04:14;80.47;;;38.13;;
74335;SDS011;62755;-33.398;-70.572;2022-09-03T02:06:45;76.63;;;37.28;;
74335;SDS011;62755;-33.398;-70.572;2022-09-03T02:09:15;83.78;;;37.97;;
74335;SDS011;62755;-33.398;-70.572;2022-09-03T02:11:47;82.95;;;38.67;;
74335;SDS011;62755;-33.398;-70.572;2022-09-03T02:14:20;78.97;;;36.40;;
74335;SDS011;62755;-33.398;-70.572;2022-09-03T02:16:52;78.30;;;35.13;;
74335;SDS011;62755;-33.398;-70.572;2022-09-03T02:19:25;69.78;;;33.65;;
74335;SDS011;62755;-33.398;-70.572;2022-09-03T02:21:57;69.05;;;30.45;;
74335;SDS011;62755;-33.398;-70.572;2022-09-03T02:24:27;72.05;;;31.45;;
74335;SDS011;62755;-33.398;-70.572;2022-09-03T02:26:57;63.35;;;32.58;;
74335;SDS011;62755;-33.398;-70.572;2022-09-03T02:29:27;70.63;;;34.70;;
74335;SDS011;62755;-33.398;-70.572;2022-09-03T02:31:58;66.75;;;34.45;;
74335;SDS011;62755;-33.398;-70.572;2022-09-03T02:34:28;79.00;;;38.30;;
74335;SDS011;62755;-33.398;-70.572;2022-09-03T02:36:58;76.15;;;38.28;;
74335;SDS011;62755;-33.398;-70.572;2022-09-03T02:39:38;77.53;;;38.58;;
74335;SDS011;62755;-33.398;-70.572;2022-09-03T02:42:08;85.10;;;40.13;;
74335;SDS011;62755;-33.398;-70.572;2022-09-03T02:44:40;84.72;;;39.17;;
74335;SDS011;62755;-33.398;-70.572;2022-09-03T02:47:16;84.47;;;36.80;;
74335;SDS011;62755;-33.398;-70.572;2022-09-03T02:49:46;72.07;;;36.90;;
74335;SDS011;62755;-33.398;-70.572;2022-09-03T02:52:16;59.55;;;32.35;;
74335;SDS011;62755;-33.398;-70.572;2022-09-03T02:54:46;65.90;;;33.00;;
74335;SDS011;62755;-33.398;-70.572;2022-09-03T02:57:15;66.20;;;33.13;;
74335;SDS011;62755;-33.398;-70.572;2022-09-03T02:59:45;81.35;;;36.88;;
74335;SDS011;62755;-33.398;-70.572;2022-09-03T03:02:16;63.05;;;30.20;;
74335;SDS011;62755;-33.398;-70.572;2022-09-03T03:04:46;67.15;;;31.73;;
74335;SDS011;62755;-33.398;-70.572;2022-09-03T03:07:16;73.35;;;32.83;;
74335;SDS011;62755;-33.398;-70.572;2022-09-03T03:09:45;70.32;;;32.13;;
74335;SDS011;62755;-33.398;-70.572;2022-09-03T03:12:15;55.72;;;26.35;;
74335;SDS011;62755;-33.398;-70.572;2022-09-03T03:14:44;56.88;;;26.80;;
74335;SDS011;62755;-33.398;-70.572;2022-09-03T03:17:16;51.38;;;23.98;;
74335;SDS011;62755;-33.398;-70.572;2022-09-03T03:19:46;52.08;;;25.52;;
74335;SDS011;62755;-33.398;-70.572;2022-09-03T03:22:15;44.40;;;23.33;;
74335;SDS011;62755;-33.398;-70.572;2022-09-03T03:24:45;41.35;;;21.40;;
74335;SDS011;62755;-33.398;-70.572;2022-09-03T03:27:15;39.50;;;21.40;;
74335;SDS011;62755;-33.398;-70.572;2022-09-03T03:29:45;44.22;;;21.92;;
74335;SDS011;62755;-33.398;-70.572;2022-09-03T03:32:16;54.58;;;26.27;;
74335;SDS011;62755;-33.398;-70.572;2022-09-03T03:34:46;47.75;;;24.83;;
74335;SDS011;62755;-33.398;-70.572;2022-09-03T03:37:16;50.70;;;23.85;;
74335;SDS011;62755;-33.398;-70.572;2022-09-03T03:39:45;60.08;;;26.17;;
74335;SDS011;62755;-33.398;-70.572;2022-09-03T03:42:15;50.92;;;24.10;;
74335;SDS011;62755;-33.398;-70.572;2022-09-03T03:44:44;47.28;;;25.00;;
74335;SDS011;62755;-33.398;-70.572;2022-09-03T03:47:16;52.22;;;23.55;;
74335;SDS011;62755;-33.398;-70.572;2022-09-03T03:49:45;54.42;;;26.15;;
74335;SDS011;62755;-33.398;-70.572;2022-09-03T03:52:15;47.97;;;22.48;;
74335;SDS011;62755;-33.398;-70.572;2022-09-03T03:54:44;45.10;;;21.98;;
74335;SDS011;62755;-33.398;-70.572;2022-09-03T03:57:15;38.13;;;18.92;;
74335;SDS011;62755;-33.398;-70.572;2022-09-03T03:59:45;35.88;;;19.58;;
74335;SDS011;62755;-33.398;-70.572;2022-09-03T04:02:17;37.70;;;20.08;;
74335;SDS011;62755;-33.398;-70.572;2022-09-03T04:04:46;39.20;;;20.58;;
74335;SDS011;62755;-33.398;-70.572;2022-09-03T04:07:16;42.40;;;20.63;;
74335;SDS011;62755;-33.398;-70.572;2022-09-03T04:09:46;40.92;;;20.67;;
74335;SDS011;62755;-33.398;-70.572;2022-09-03T04:12:16;51.00;;;24.45;;
74335;SDS011;62755;-33.398;-70.572;2022-09-03T04:14:45;51.75;;;26.38;;
74335;SDS011;62755;-33.398;-70.572;2022-09-03T04:17:17;39.40;;;20.65;;
74335;SDS011;62755;-33.398;-70.572;2022-09-03T04:19:46;46.17;;;22.65;;
74335;SDS011;62755;-33.398;-70.572;2022-09-03T04:22:18;41.25;;;22.98;;
74335;SDS011;62755;-33.398;-70.572;2022-09-03T04:24:48;41.30;;;20.55;;
74335;SDS011;62755;-33.398;-70.572;2022-09-03T04:27:17;37.45;;;20.83;;
74335;SDS011;62755;-33.398;-70.572;2022-09-03T04:29:47;47.67;;;20.90;;
74335;SDS011;62755;-33.398;-70.572;2022-09-03T04:32:19;33.95;;;19.00;;
74335;SDS011;62755;-33.398;-70.572;2022-09-03T04:35:05;40.75;;;18.80;;
74335;SDS011;62755;-33.398;-70.572;2022-09-03T04:37:35;40.17;;;17.92;;
74335;SDS011;62755;-33.398;-70.572;2022-09-03T04:40:05;46.20;;;19.55;;
74335;SDS011;62755;-33.398;-70.572;2022-09-03T04:42:35;33.75;;;15.52;;
74335;SDS011;62755;-33.398;-70.572;2022-09-03T04:45:05;30.15;;;15.80;;
74335;SDS011;62755;-33.398;-70.572;2022-09-03T04:47:37;27.52;;;15.43;;
74335;SDS011;62755;-33.398;-70.572;2022-09-03T04:50:07;30.30;;;13.85;;
74335;SDS011;62755;-33.398;-70.572;2022-09-03T04:52:37;32.35;;;13.65;;
74335;SDS011;62755;-33.398;-70.572;2022-09-03T04:55:08;30.98;;;14.35;;
74335;SDS011;62755;-33.398;-70.572;2022-09-03T04:57:37;27.20;;;13.18;;
74335;SDS011;62755;-33.398;-70.572;2022-09-03T05:00:08;27.50;;;13.88;;
74335;SDS011;62755;-33.398;-70.572;2022-09-03T05:02:40;29.90;;;16.08;;
74335;SDS011;62755;-33.398;-70.572;2022-09-03T05:05:11;41.55;;;18.30;;
74335;SDS011;62755;-33.398;-70.572;2022-09-03T05:07:41;39.22;;;18.67;;
74335;SDS011;62755;-33.398;-70.572;2022-09-03T05:10:11;43.40;;;17.83;;
74335;SDS011;62755;-33.398;-70.572;2022-09-03T05:12:45;37.55;;;18.35;;
74335;SDS011;62755;-33.398;-70.572;2022-09-03T05:15:15;32.25;;;17.00;;
74335;SDS011;62755;-33.398;-70.572;2022-09-03T05:17:46;27.33;;;15.10;;
74335;SDS011;62755;-33.398;-70.572;2022-09-03T05:20:17;35.35;;;16.52;;
74335;SDS011;62755;-33.398;-70.572;2022-09-03T05:22:48;38.85;;;18.42;;
74335;SDS011;62755;-33.398;-70.572;2022-09-03T05:25:17;42.55;;;19.95;;
74335;SDS011;62755;-33.398;-70.572;2022-09-03T05:27:47;39.30;;;20.77;;
74335;SDS011;62755;-33.398;-70.572;2022-09-03T05:30:19;35.03;;;18.48;;
74335;SDS011;62755;-33.398;-70.572;2022-09-03T05:32:51;29.45;;;15.80;;
74335;SDS011;62755;-33.398;-70.572;2022-09-03T05:35:20;26.70;;;14.45;;
74335;SDS011;62755;-33.398;-70.572;2022-09-03T05:37:53;29.90;;;13.00;;
74335;SDS011;62755;-33.398;-70.572;2022-09-03T05:40:23;27.55;;;13.23;;
74335;SDS011;62755;-33.398;-70.572;2022-09-03T05:42:55;28.15;;;14.00;;
74335;SDS011;62755;-33.398;-70.572;2022-09-03T05:45:25;26.35;;;12.75;;
74335;SDS011;62755;-33.398;-70.572;2022-09-03T05:47:58;32.35;;;12.60;;
74335;SDS011;62755;-33.398;-70.572;2022-09-03T05:50:28;26.27;;;12.20;;
74335;SDS011;62755;-33.398;-70.572;2022-09-03T05:52:57;26.30;;;12.48;;
74335;SDS011;62755;-33.398;-70.572;2022-09-03T05:55:27;25.13;;;12.88;;
74335;SDS011;62755;-33.398;-70.572;2022-09-03T05:57:57;27.50;;;12.75;;
74335;SDS011;62755;-33.398;-70.572;2022-09-03T06:00:26;24.52;;;12.80;;
74335;SDS011;62755;-33.398;-70.572;2022-09-03T06:02:57;26.90;;;12.35;;
74335;SDS011;62755;-33.398;-70.572;2022-09-03T06:05:27;18.55;;;10.25;;
74335;SDS011;62755;-33.398;-70.572;2022-09-03T06:07:56;20.40;;;10.57;;
74335;SDS011;62755;-33.398;-70.572;2022-09-03T06:10:26;27.55;;;10.85;;
74335;SDS011;62755;-33.398;-70.572;2022-09-03T06:12:56;26.40;;;11.05;;
74335;SDS011;62755;-33.398;-70.572;2022-09-03T06:15:27;25.20;;;10.75;;
74335;SDS011;62755;-33.398;-70.572;2022-09-03T06:17:59;18.27;;;10.75;;
74335;SDS011;62755;-33.398;-70.572;2022-09-03T06:20:29;24.23;;;10.52;;
74335;SDS011;62755;-33.398;-70.572;2022-09-03T06:23:00;24.60;;;9.45;;
74335;SDS011;62755;-33.398;-70.572;2022-09-03T06:25:30;21.38;;;10.95;;
74335;SDS011;62755;-33.398;-70.572;2022-09-03T06:27:59;20.77;;;11.55;;
74335;SDS011;62755;-33.398;-70.572;2022-09-03T06:30:29;30.02;;;11.80;;
74335;SDS011;62755;-33.398;-70.572;2022-09-03T06:33:00;28.58;;;11.40;;
74335;SDS011;62755;-33.398;-70.572;2022-09-03T06:35:30;30.17;;;11.32;;
74335;SDS011;62755;-33.398;-70.572;2022-09-03T06:38:00;22.52;;;11.27;;
74335;SDS011;62755;-33.398;-70.572;2022-09-03T06:40:29;20.00;;;10.80;;
74335;SDS011;62755;-33.398;-70.572;2022-09-03T06:42:59;21.92;;;10.68;;
74335;SDS011;62755;-33.398;-70.572;2022-09-03T06:45:29;27.55;;;11.65;;
74335;SDS011;62755;-33.398;-70.572;2022-09-03T06:48:00;24.92;;;11.20;;
74335;SDS011;62755;-33.398;-70.572;2022-09-03T06:50:30;20.77;;;9.52;;
74335;SDS011;62755;-33.398;-70.572;2022-09-03T06:53:00;25.75;;;10.30;;
74335;SDS011;62755;-33.398;-70.572;2022-09-03T06:55:31;22.35;;;9.75;;
74335;SDS011;62755;-33.398;-70.572;2022-09-03T06:58:04;19.38;;;9.32;;
74335;SDS011;62755;-33.398;-70.572;2022-09-03T07:00:35;32.35;;;10.07;;
74335;SDS011;62755;-33.398;-70.572;2022-09-03T07:03:06;23.35;;;11.73;;
74335;SDS011;62755;-33.398;-70.572;2022-09-03T07:05:36;29.58;;;12.50;;
74335;SDS011;62755;-33.398;-70.572;2022-09-03T07:08:05;26.85;;;13.57;;
74335;SDS011;62755;-33.398;-70.572;2022-09-03T07:10:35;37.45;;;17.65;;
74335;SDS011;62755;-33.398;-70.572;2022-09-03T07:13:05;41.83;;;19.25;;
74335;SDS011;62755;-33.398;-70.572;2022-09-03T07:15:35;43.47;;;19.65;;
74335;SDS011;62755;-33.398;-70.572;2022-09-03T07:18:06;34.47;;;19.88;;
74335;SDS011;62755;-33.398;-70.572;2022-09-03T07:20:36;44.85;;;20.15;;
74335;SDS011;62755;-33.398;-70.572;2022-09-03T07:23:05;34.00;;;16.88;;
74335;SDS011;62755;-33.398;-70.572;2022-09-03T07:25:35;27.42;;;15.18;;
74335;SDS011;62755;-33.398;-70.572;2022-09-03T07:28:05;31.90;;;13.13;;
74335;SDS011;62755;-33.398;-70.572;2022-09-03T07:30:34;29.73;;;11.50;;
74335;SDS011;62755;-33.398;-70.572;2022-09-03T07:33:06;20.60;;;10.45;;
74335;SDS011;62755;-33.398;-70.572;2022-09-03T07:35:36;24.13;;;8.93;;
74335;SDS011;62755;-33.398;-70.572;2022-09-03T07:38:05;13.27;;;7.35;;
74335;SDS011;62755;-33.398;-70.572;2022-09-03T07:40:35;18.88;;;7.38;;
74335;SDS011;62755;-33.398;-70.572;2022-09-03T07:43:05;23.40;;;7.65;;
74335;SDS011;62755;-33.398;-70.572;2022-09-03T07:45:35;16.48;;;7.18;;
74335;SDS011;62755;-33.398;-70.572;2022-09-03T07:48:06;16.55;;;7.85;;
74335;SDS011;62755;-33.398;-70.572;2022-09-03T07:50:36;11.93;;;7.35;;
74335;SDS011;62755;-33.398;-70.572;2022-09-03T07:53:06;19.35;;;7.95;;
74335;SDS011;62755;-33.398;-70.572;2022-09-03T07:55:35;18.77;;;7.88;;
74335;SDS011;62755;-33.398;-70.572;2022-09-03T07:58:05;14.40;;;7.55;;
74335;SDS011;62755;-33.398;-70.572;2022-09-03T08:00:35;16.67;;;8.23;;
74335;SDS011;62755;-33.398;-70.572;2022-09-03T08:03:08;19.63;;;8.20;;
74335;SDS011;62755;-33.398;-70.572;2022-09-03T08:05:37;19.20;;;8.23;;
74335;SDS011;62755;-33.398;-70.572;2022-09-03T08:08:07;17.00;;;7.65;;
74335;SDS011;62755;-33.398;-70.572;2022-09-03T08:10:38;20.40;;;8.45;;
74335;SDS011;62755;-33.398;-70.572;2022-09-03T08:13:08;15.70;;;8.40;;
74335;SDS011;62755;-33.398;-70.572;2022-09-03T08:15:37;16.75;;;8.13;;
74335;SDS011;62755;-33.398;-70.572;2022-09-03T08:18:09;23.00;;;8.63;;
74335;SDS011;62755;-33.398;-70.572;2022-09-03T08:20:40;19.83;;;8.80;;
74335;SDS011;62755;-33.398;-70.572;2022-09-03T08:23:09;17.35;;;9.00;;
74335;SDS011;62755;-33.398;-70.572;2022-09-03T08:25:41;17.60;;;9.13;;
74335;SDS011;62755;-33.398;-70.572;2022-09-03T08:28:11;21.15;;;8.80;;
74335;SDS011;62755;-33.398;-70.572;2022-09-03T08:30:40;22.23;;;8.05;;
74335;SDS011;62755;-33.398;-70.572;2022-09-03T08:33:12;17.52;;;7.63;;
74335;SDS011;62755;-33.398;-70.572;2022-09-03T08:35:41;16.33;;;6.00;;
74335;SDS011;62755;-33.398;-70.572;2022-09-03T08:38:19;14.13;;;5.85;;
74335;SDS011;62755;-33.398;-70.572;2022-09-03T08:40:49;15.27;;;5.35;;
74335;SDS011;62755;-33.398;-70.572;2022-09-03T08:43:20;12.13;;;4.82;;
74335;SDS011;62755;-33.398;-70.572;2022-09-03T08:45:50;9.93;;;5.30;;
74335;SDS011;62755;-33.398;-70.572;2022-09-03T08:48:22;10.82;;;4.72;;
74335;SDS011;62755;-33.398;-70.572;2022-09-03T08:50:52;12.10;;;4.82;;
74335;SDS011;62755;-33.398;-70.572;2022-09-03T08:53:27;10.40;;;5.10;;
74335;SDS011;62755;-33.398;-70.572;2022-09-03T08:56:03;10.63;;;4.50;;
74335;SDS011;62755;-33.398;-70.572;2022-09-03T08:58:37;11.55;;;5.28;;
74335;SDS011;62755;-33.398;-70.572;2022-09-03T09:01:11;7.07;;;4.38;;
74335;SDS011;62755;-33.398;-70.572;2022-09-03T09:04:02;13.68;;;4.97;;
74335;SDS011;62755;-33.398;-70.572;2022-09-03T09:06:40;13.07;;;5.45;;
74335;SDS011;62755;-33.398;-70.572;2022-09-03T09:09:19;9.70;;;5.13;;
74335;SDS011;62755;-33.398;-70.572;2022-09-03T09:11:58;10.55;;;5.13;;
74335;SDS011;62755;-33.398;-70.572;2022-09-03T09:14:38;15.45;;;5.65;;
74335;SDS011;62755;-33.398;-70.572;2022-09-03T09:17:16;15.80;;;7.25;;
74335;SDS011;62755;-33.398;-70.572;2022-09-03T09:19:59;41.97;;;19.77;;
74335;SDS011;62755;-33.398;-70.572;2022-09-03T09:22:39;47.55;;;21.90;;
74335;SDS011;62755;-33.398;-70.572;2022-09-03T09:25:12;49.85;;;22.35;;
74335;SDS011;62755;-33.398;-70.572;2022-09-03T09:27:47;40.88;;;21.90;;
74335;SDS011;62755;-33.398;-70.572;2022-09-03T09:30:21;48.50;;;24.27;;
74335;SDS011;62755;-33.398;-70.572;2022-09-03T09:32:51;54.78;;;23.50;;
74335;SDS011;62755;-33.398;-70.572;2022-09-03T09:35:22;55.55;;;25.02;;
74335;SDS011;62755;-33.398;-70.572;2022-09-03T09:37:54;51.78;;;24.65;;
74335;SDS011;62755;-33.398;-70.572;2022-09-03T09:40:26;48.00;;;24.90;;
74335;SDS011;62755;-33.398;-70.572;2022-09-03T09:43:06;57.20;;;28.30;;
74335;SDS011;62755;-33.398;-70.572;2022-09-03T09:45:41;58.00;;;28.02;;
74335;SDS011;62755;-33.398;-70.572;2022-09-03T09:48:20;63.08;;;30.25;;
74335;SDS011;62755;-33.398;-70.572;2022-09-03T09:51:08;69.20;;;31.92;;
74335;SDS011;62755;-33.398;-70.572;2022-09-03T09:53:39;61.35;;;29.85;;
74335;SDS011;62755;-33.398;-70.572;2022-09-03T09:56:19;67.32;;;31.95;;
74335;SDS011;62755;-33.398;-70.572;2022-09-03T09:58:49;63.22;;;29.90;;
74335;SDS011;62755;-33.398;-70.572;2022-09-03T10:01:29;68.45;;;30.75;;
74335;SDS011;62755;-33.398;-70.572;2022-09-03T10:03:59;65.20;;;29.75;;
74335;SDS011;62755;-33.398;-70.572;2022-09-03T10:06:38;61.13;;;28.42;;
74335;SDS011;62755;-33.398;-70.572;2022-09-03T10:09:22;58.45;;;28.13;;
74335;SDS011;62755;-33.398;-70.572;2022-09-03T10:11:55;52.42;;;26.42;;
74335;SDS011;62755;-33.398;-70.572;2022-09-03T10:14:41;52.22;;;23.60;;
74335;SDS011;62755;-33.398;-70.572;2022-09-03T10:17:18;48.33;;;24.98;;
74335;SDS011;62755;-33.398;-70.572;2022-09-03T10:19:55;46.58;;;24.48;;
74335;SDS011;62755;-33.398;-70.572;2022-09-03T10:22:55;48.70;;;23.27;;
74335;SDS011;62755;-33.398;-70.572;2022-09-03T10:25:33;39.50;;;20.50;;
74335;SDS011;62755;-33.398;-70.572;2022-09-03T10:28:14;26.42;;;12.05;;
74335;SDS011;62755;-33.398;-70.572;2022-09-03T10:30:52;14.30;;;7.22;;
74335;SDS011;62755;-33.398;-70.572;2022-09-03T10:33:37;20.05;;;7.60;;
74335;SDS011;62755;-33.398;-70.572;2022-09-03T10:36:10;12.07;;;7.15;;
74335;SDS011;62755;-33.398;-70.572;2022-09-03T10:38:48;21.23;;;10.05;;
74335;SDS011;62755;-33.398;-70.572;2022-09-03T10:41:29;31.48;;;13.77;;
74335;SDS011;62755;-33.398;-70.572;2022-09-03T10:44:12;40.80;;;17.00;;
74335;SDS011;62755;-33.398;-70.572;2022-09-03T10:46:53;35.33;;;14.52;;
74335;SDS011;62755;-33.398;-70.572;2022-09-03T10:49:43;34.30;;;16.15;;
74335;SDS011;62755;-33.398;-70.572;2022-09-03T10:52:24;22.55;;;9.38;;
74335;SDS011;62755;-33.398;-70.572;2022-09-03T10:55:02;13.55;;;5.93;;
74335;SDS011;62755;-33.398;-70.572;2022-09-03T10:57:44;16.02;;;6.20;;
74335;SDS011;62755;-33.398;-70.572;2022-09-03T11:00:21;15.90;;;5.15;;
74335;SDS011;62755;-33.398;-70.572;2022-09-03T11:06:05;13.98;;;4.25;;
74335;SDS011;62755;-33.398;-70.572;2022-09-03T11:08:40;13.02;;;4.55;;
74335;SDS011;62755;-33.398;-70.572;2022-09-03T11:11:14;14.88;;;3.30;;
74335;SDS011;62755;-33.398;-70.572;2022-09-03T11:13:48;14.32;;;3.80;;
74335;SDS011;62755;-33.398;-70.572;2022-09-03T11:16:22;10.55;;;3.38;;
74335;SDS011;62755;-33.398;-70.572;2022-09-03T11:18:56;9.50;;;4.10;;
74335;SDS011;62755;-33.398;-70.572;2022-09-03T11:21:31;7.97;;;2.80;;
74335;SDS011;62755;-33.398;-70.572;2022-09-03T11:24:04;7.63;;;2.80;;
74335;SDS011;62755;-33.398;-70.572;2022-09-03T11:26:41;8.65;;;3.10;;
74335;SDS011;62755;-33.398;-70.572;2022-09-03T11:29:15;8.88;;;2.92;;
74335;SDS011;62755;-33.398;-70.572;2022-09-03T11:31:52;5.80;;;3.00;;
74335;SDS011;62755;-33.398;-70.572;2022-09-03T11:34:27;4.95;;;2.60;;
74335;SDS011;62755;-33.398;-70.572;2022-09-03T11:37:05;8.77;;;3.15;;
74335;SDS011;62755;-33.398;-70.572;2022-09-03T11:39:44;7.47;;;2.40;;
74335;SDS011;62755;-33.398;-70.572;2022-09-03T11:42:26;6.10;;;2.83;;
74335;SDS011;62755;-33.398;-70.572;2022-09-03T11:44:59;8.02;;;2.75;;
74335;SDS011;62755;-33.398;-70.572;2022-09-03T11:47:43;9.05;;;4.00;;
74335;SDS011;62755;-33.398;-70.572;2022-09-03T11:50:17;9.05;;;3.67;;
74335;SDS011;62755;-33.398;-70.572;2022-09-03T11:52:50;16.35;;;3.38;;
74335;SDS011;62755;-33.398;-70.572;2022-09-03T11:55:25;7.43;;;4.38;;
74335;SDS011;62755;-33.398;-70.572;2022-09-03T11:58:08;11.02;;;3.95;;
74335;SDS011;62755;-33.398;-70.572;2022-09-03T12:00:40;7.78;;;2.95;;
74335;SDS011;62755;-33.398;-70.572;2022-09-03T12:03:12;12.07;;;3.20;;
74335;SDS011;62755;-33.398;-70.572;2022-09-03T12:05:45;7.28;;;2.90;;
74335;SDS011;62755;-33.398;-70.572;2022-09-03T12:11:24;11.27;;;3.60;;
74335;SDS011;62755;-33.398;-70.572;2022-09-03T12:14:07;11.65;;;4.13;;
74335;SDS011;62755;-33.398;-70.572;2022-09-03T12:16:49;10.10;;;3.60;;
74335;SDS011;62755;-33.398;-70.572;2022-09-03T12:19:40;8.98;;;3.55;;
74335;SDS011;62755;-33.398;-70.572;2022-09-03T12:22:15;7.50;;;3.70;;
74335;SDS011;62755;-33.398;-70.572;2022-09-03T12:24:46;10.70;;;3.60;;
74335;SDS011;62755;-33.398;-70.572;2022-09-03T12:27:18;8.90;;;3.75;;
74335;SDS011;62755;-33.398;-70.572;2022-09-03T12:29:51;33.10;;;4.43;;
74335;SDS011;62755;-33.398;-70.572;2022-09-03T12:32:25;13.13;;;4.23;;
74335;SDS011;62755;-33.398;-70.572;2022-09-03T12:34:57;13.43;;;3.55;;
74335;SDS011;62755;-33.398;-70.572;2022-09-03T12:37:40;12.52;;;3.53;;
74335;SDS011;62755;-33.398;-70.572;2022-09-03T12:40:17;12.82;;;3.28;;
74335;SDS011;62755;-33.398;-70.572;2022-09-03T12:42:48;12.05;;;3.20;;
74335;SDS011;62755;-33.398;-70.572;2022-09-03T12:45:21;11.35;;;3.00;;
74335;SDS011;62755;-33.398;-70.572;2022-09-03T12:47:52;9.45;;;3.08;;
74335;SDS011;62755;-33.398;-70.572;2022-09-03T12:50:22;13.23;;;3.40;;
74335;SDS011;62755;-33.398;-70.572;2022-09-03T12:52:53;8.18;;;2.92;;
74335;SDS011;62755;-33.398;-70.572;2022-09-03T12:55:28;6.30;;;2.80;;
74335;SDS011;62755;-33.398;-70.572;2022-09-03T12:58:05;10.63;;;3.03;;
74335;SDS011;62755;-33.398;-70.572;2022-09-03T13:00:40;8.45;;;2.90;;
74335;SDS011;62755;-33.398;-70.572;2022-09-03T13:03:14;21.33;;;5.47;;
74335;SDS011;62755;-33.398;-70.572;2022-09-03T13:05:49;16.45;;;4.35;;
74335;SDS011;62755;-33.398;-70.572;2022-09-03T13:08:22;18.92;;;4.45;;
74335;SDS011;62755;-33.398;-70.572;2022-09-03T13:10:55;27.10;;;5.80;;
74335;SDS011;62755;-33.398;-70.572;2022-09-03T13:13:28;17.20;;;5.97;;
74335;SDS011;62755;-33.398;-70.572;2022-09-03T13:16:05;29.48;;;6.85;;
74335;SDS011;62755;-33.398;-70.572;2022-09-03T13:18:47;26.73;;;6.95;;
74335;SDS011;62755;-33.398;-70.572;2022-09-03T13:21:28;17.55;;;6.20;;
74335;SDS011;62755;-33.398;-70.572;2022-09-03T13:24:07;24.60;;;6.85;;
74335;SDS011;62755;-33.398;-70.572;2022-09-03T13:26:48;28.85;;;7.22;;
74335;SDS011;62755;-33.398;-70.572;2022-09-03T13:29:38;17.58;;;6.03;;
74335;SDS011;62755;-33.398;-70.572;2022-09-03T13:32:24;28.00;;;6.95;;
74335;SDS011;62755;-33.398;-70.572;2022-09-03T13:35:01;19.80;;;6.82;;
74335;SDS011;62755;-33.398;-70.572;2022-09-03T13:37:37;16.00;;;7.03;;
74335;SDS011;62755;-33.398;-70.572;2022-09-03T13:40:14;18.23;;;6.18;;
74335;SDS011;62755;-33.398;-70.572;2022-09-03T13:42:50;21.52;;;7.20;;
74335;SDS011;62755;-33.398;-70.572;2022-09-03T13:45:30;14.65;;;6.85;;
74335;SDS011;62755;-33.398;-70.572;2022-09-03T13:48:09;18.92;;;6.90;;
74335;SDS011;62755;-33.398;-70.572;2022-09-03T13:51:02;26.75;;;8.27;;
74335;SDS011;62755;-33.398;-70.572;2022-09-03T13:53:47;28.70;;;8.73;;
74335;SDS011;62755;-33.398;-70.572;2022-09-03T13:56:28;27.80;;;8.50;;
74335;SDS011;62755;-33.398;-70.572;2022-09-03T13:59:10;24.40;;;9.60;;
74335;SDS011;62755;-33.398;-70.572;2022-09-03T14:01:54;24.83;;;11.13;;
74335;SDS011;62755;-33.398;-70.572;2022-09-03T14:04:46;24.98;;;11.50;;
74335;SDS011;62755;-33.398;-70.572;2022-09-03T14:07:33;32.20;;;13.48;;
74335;SDS011;62755;-33.398;-70.572;2022-09-03T14:10:21;35.55;;;14.82;;
74335;SDS011;62755;-33.398;-70.572;2022-09-03T14:13:01;36.67;;;18.08;;
74335;SDS011;62755;-33.398;-70.572;2022-09-03T14:15:42;52.40;;;18.90;;
74335;SDS011;62755;-33.398;-70.572;2022-09-03T14:18:28;41.60;;;18.85;;
74335;SDS011;62755;-33.398;-70.572;2022-09-03T14:21:12;35.45;;;19.77;;
74335;SDS011;62755;-33.398;-70.572;2022-09-03T14:23:47;40.78;;;21.52;;
74335;SDS011;62755;-33.398;-70.572;2022-09-03T14:26:27;42.75;;;21.20;;
74335;SDS011;62755;-33.398;-70.572;2022-09-03T14:28:58;39.90;;;21.23;;
74335;SDS011;62755;-33.398;-70.572;2022-09-03T14:34:37;42.33;;;20.98;;
74335;SDS011;62755;-33.398;-70.572;2022-09-03T14:37:24;38.00;;;20.83;;
74335;SDS011;62755;-33.398;-70.572;2022-09-03T14:40:09;35.63;;;19.80;;
74335;SDS011;62755;-33.398;-70.572;2022-09-03T14:42:47;38.40;;;19.95;;